createdAt,value
2023-03-06T00:00:12.307Z,100121.00
2023-03-06T00:02:40.463Z,100120.44
2023-03-06T00:05:08.893Z,100110.84
2023-03-06T00:07:38.409Z,100108.19
2023-03-06T00:10:06.903Z,100106.47
2023-03-06T00:12:35.013Z,100100.44
2023-03-06T00:15:05.531Z,100101.25
2023-03-06T00:17:33.840Z,100105.50
2023-03-06T00:20:01.933Z,100100.28
2023-03-06T00:22:30.082Z,100099.56
2023-03-06T00:24:59.776Z,100095.91
2023-03-06T00:27:28.213Z,100093.91
2023-03-06T00:29:57.519Z,100089.28
2023-03-06T00:32:26.072Z,100088.47
2023-03-06T00:34:54.540Z,100086.63
2023-03-06T00:37:23.177Z,100084.63
2023-03-06T00:39:51.549Z,100074.06
2023-03-06T00:42:21.701Z,100075.91
2023-03-06T00:44:49.927Z,100068.56
2023-03-06T00:47:18.443Z,100058.56
2023-03-06T00:49:46.841Z,100067.59
2023-03-06T00:52:14.827Z,100061.94
2023-03-06T00:54:42.916Z,100061.25
2023-03-06T00:57:11.088Z,100055.59
2023-03-06T00:59:40.564Z,100061.66
2023-03-06T01:02:08.946Z,100054.47
2023-03-06T01:04:37.339Z,100049.97
2023-03-06T01:07:05.745Z,100046.31
2023-03-06T01:09:33.841Z,100038.97
2023-03-06T01:12:02.174Z,100043.91
2023-03-06T01:14:31.348Z,100034.03
2023-03-06T01:17:00.885Z,100026.00
2023-03-06T01:19:29.078Z,100026.00
2023-03-06T01:21:57.126Z,100024.28
2023-03-06T01:24:25.949Z,100019.91
2023-03-06T01:26:58.043Z,100020.94
2023-03-06T01:29:26.588Z,100019.81
2023-03-06T01:31:54.967Z,100011.78
2023-03-06T01:34:24.692Z,100012.47
2023-03-06T01:36:53.073Z,100015.00
2023-03-06T01:39:21.475Z,100010.47
2023-03-06T01:41:50.050Z,100012.03
2023-03-06T01:44:18.101Z,100011.03
2023-03-06T01:46:46.362Z,100007.38
2023-03-06T01:49:18.028Z,100005.38
2023-03-06T01:51:50.301Z,100004.56
2023-03-06T01:54:22.554Z,99996.38
2023-03-06T01:56:52.831Z,99995.41
2023-03-06T01:59:22.063Z,99988.34
2023-03-06T02:01:51.589Z,99983.28
2023-03-06T02:04:20.087Z,99973.53
2023-03-06T02:06:50.007Z,99975.25
2023-03-06T02:09:18.076Z,99975.25
2023-03-06T02:11:46.459Z,99969.16
2023-03-06T02:14:16.042Z,99957.31
2023-03-06T02:16:45.459Z,99962.53
2023-03-06T02:19:23.519Z,99960.56
2023-03-06T02:21:53.033Z,99961.25
2023-03-06T02:24:25.050Z,99959.25
2023-03-06T02:26:55.039Z,99957.44
2023-03-06T02:29:25.365Z,99956.59
2023-03-06T02:31:53.361Z,99947.72
2023-03-06T02:34:45.421Z,99953.78
2023-03-06T02:37:13.817Z,99943.06
2023-03-06T02:39:44.128Z,99935.72
2023-03-06T02:42:18.685Z,99932.88
2023-03-06T02:44:46.816Z,99930.34
2023-03-06T02:47:15.116Z,99929.38
2023-03-06T02:49:43.179Z,99922.16
2023-03-06T02:52:11.635Z,99918.50
2023-03-06T02:54:40.604Z,99920.19
2023-03-06T02:57:09.060Z,99911.16
2023-03-06T02:59:39.117Z,99916.66
2023-03-06T03:02:07.802Z,99906.66
2023-03-06T03:04:36.233Z,99905.50
2023-03-06T03:07:04.706Z,99905.22
2023-03-06T03:09:37.000Z,99905.22
2023-03-06T03:12:06.579Z,99899.88
2023-03-06T03:14:35.223Z,99895.34
2023-03-06T03:17:06.231Z,99895.03
2023-03-06T03:19:34.290Z,99893.34
2023-03-06T03:22:02.766Z,99886.84
2023-03-06T03:24:31.022Z,99884.00
2023-03-06T03:26:59.406Z,99882.03
2023-03-06T03:29:27.638Z,99865.41
2023-03-06T03:31:55.901Z,99870.47
2023-03-06T03:34:28.277Z,99875.00
2023-03-06T03:36:57.366Z,99863.44
2023-03-06T03:39:25.610Z,99857.22
2023-03-06T03:41:53.713Z,99854.00
2023-03-06T03:44:22.037Z,99852.84
2023-03-06T03:46:50.298Z,99848.34
2023-03-06T03:49:22.433Z,99849.34
2023-03-06T03:51:53.396Z,99835.41
2023-03-06T03:54:23.478Z,99844.88
2023-03-06T03:56:54.116Z,99834.75
2023-03-06T03:59:27.205Z,99830.25
2023-03-06T04:02:08.867Z,99840.09
2023-03-06T04:04:44.036Z,99833.75
2023-03-06T04:07:14.087Z,99835.31
2023-03-06T04:09:42.736Z,99828.09
2023-03-06T04:12:10.882Z,99830.47
2023-03-06T04:14:39.351Z,99823.97
2023-03-06T04:17:08.006Z,99830.19
2023-03-06T04:19:36.370Z,99822.84
2023-03-06T04:22:04.917Z,99819.47
2023-03-06T04:24:37.564Z,99819.19
2023-03-06T04:27:06.221Z,99811.13
2023-03-06T04:29:34.321Z,99812.13
2023-03-06T04:32:03.612Z,99805.31
2023-03-06T04:34:32.264Z,99811.50
2023-03-06T04:37:00.484Z,99801.81
2023-03-06T04:39:28.597Z,99797.13
2023-03-06T04:41:58.432Z,99798.50
2023-03-06T04:44:26.627Z,99796.81
2023-03-06T04:46:54.598Z,99785.94
2023-03-06T04:49:22.938Z,99793.66
2023-03-06T04:51:51.074Z,99784.66
2023-03-06T04:54:19.256Z,99784.34
2023-03-06T04:56:47.332Z,99771.94
2023-03-06T04:59:16.872Z,99786.19
2023-03-06T05:01:45.643Z,99783.81
2023-03-06T05:04:13.839Z,99774.63
2023-03-06T05:06:41.945Z,99775.63
2023-03-06T05:09:10.048Z,99769.94
2023-03-06T05:11:38.072Z,99769.13
2023-03-06T05:14:06.411Z,99774.47
2023-03-06T05:16:36.166Z,99769.13
2023-03-06T05:19:04.458Z,99773.78
2023-03-06T05:21:32.534Z,99765.56
2023-03-06T05:24:00.654Z,99766.59
2023-03-06T05:26:28.948Z,99755.72
2023-03-06T05:28:57.086Z,99752.16
2023-03-06T05:31:25.217Z,99745.28
2023-03-06T05:33:54.845Z,99749.66
2023-03-06T05:36:22.972Z,99745.97
2023-03-06T05:38:51.273Z,99742.59
2023-03-06T05:41:19.455Z,99752.47
2023-03-06T05:43:47.483Z,99746.28
2023-03-06T05:46:15.684Z,99742.91
2023-03-06T05:48:45.308Z,99738.56
2023-03-06T05:51:16.500Z,99736.88
2023-03-06T05:53:44.779Z,99733.88
2023-03-06T05:56:12.925Z,99733.88
2023-03-06T05:58:41.242Z,99733.19
2023-03-06T06:01:10.285Z,99736.41
2023-03-06T06:03:38.681Z,99726.66
2023-03-06T06:06:07.642Z,99727.84
2023-03-06T06:08:37.139Z,99721.47
2023-03-06T06:11:05.698Z,99713.06
2023-03-06T06:13:34.028Z,99714.06
2023-03-06T06:16:07.173Z,99710.81
2023-03-06T06:18:35.282Z,99708.00
2023-03-06T06:21:05.795Z,99709.69
2023-03-06T06:23:34.125Z,99712.34
2023-03-06T06:26:04.769Z,99703.31
2023-03-06T06:28:33.533Z,99703.16
2023-03-06T06:31:01.673Z,99708.69
2023-03-06T06:33:29.794Z,99707.00
2023-03-06T06:35:57.878Z,99703.00
2023-03-06T06:38:25.970Z,99700.34
2023-03-06T06:41:30.724Z,99704.72
2023-03-06T06:43:43.825Z,99702.88
2023-03-06T06:46:47.129Z,99696.97
2023-03-06T06:49:01.056Z,99702.03
2023-03-06T06:51:29.204Z,99694.97
2023-03-06T06:53:57.343Z,99686.47
2023-03-06T06:56:25.574Z,99693.28
2023-03-06T06:59:01.352Z,99690.31
2023-03-06T07:01:38.910Z,99687.31
2023-03-06T07:04:07.197Z,99678.91
2023-03-06T07:06:35.300Z,99681.25
2023-03-06T07:09:03.935Z,99675.75
2023-03-06T07:11:32.055Z,99683.63
2023-03-06T07:14:01.986Z,99681.66
2023-03-06T07:16:30.220Z,99677.97
2023-03-06T07:18:58.386Z,99670.63
2023-03-06T07:21:26.627Z,99674.00
2023-03-06T07:23:57.390Z,99672.97
2023-03-06T07:26:26.243Z,99657.91
2023-03-06T07:28:54.421Z,99670.28
2023-03-06T07:31:24.885Z,99664.94
2023-03-06T07:33:53.685Z,99673.69
2023-03-06T07:36:21.886Z,99662.97
2023-03-06T07:38:50.209Z,99660.94
2023-03-06T07:41:21.835Z,99660.63
2023-03-06T07:43:50.773Z,99651.59
2023-03-06T07:46:19.537Z,99648.44
2023-03-06T07:48:49.406Z,99653.66
2023-03-06T07:51:19.439Z,99644.44
2023-03-06T07:53:49.044Z,99648.66
2023-03-06T07:56:17.760Z,99644.13
2023-03-06T07:58:47.438Z,99647.19
2023-03-06T08:01:16.736Z,99642.50
2023-03-06T08:03:45.524Z,99636.97
2023-03-06T08:06:15.673Z,99638.66
2023-03-06T08:08:44.762Z,99641.88
2023-03-06T08:11:14.135Z,99636.88
2023-03-06T08:13:42.895Z,99646.13
2023-03-06T08:16:11.954Z,99636.59
2023-03-06T08:18:40.797Z,99634.44
2023-03-06T08:21:09.759Z,99636.47
2023-03-06T08:23:39.738Z,99646.22
2023-03-06T08:26:09.269Z,99638.84
2023-03-06T08:28:37.379Z,99633.84
2023-03-06T08:31:09.911Z,99630.84
2023-03-06T08:33:38.118Z,99632.53
2023-03-06T08:36:06.544Z,99630.88
2023-03-06T08:38:34.591Z,99630.72
2023-03-06T08:41:04.303Z,99626.72
2023-03-06T08:43:32.452Z,99628.09
2023-03-06T08:46:00.837Z,99622.91
2023-03-06T08:48:33.227Z,99631.66
2023-03-06T08:51:08.534Z,99631.50
2023-03-06T08:53:44.253Z,99631.50
2023-03-06T08:56:26.603Z,99625.34
2023-03-06T08:59:02.728Z,99625.50
2023-03-06T09:01:33.076Z,99620.66
2023-03-06T09:04:07.668Z,99617.63
2023-03-06T09:06:38.723Z,99623.84
2023-03-06T09:09:10.501Z,99620.66
2023-03-06T09:11:44.143Z,99617.66
2023-03-06T09:14:13.033Z,99614.09
2023-03-06T09:16:41.578Z,99606.38
2023-03-06T09:19:11.221Z,99602.00
2023-03-06T09:21:41.837Z,99591.97
2023-03-06T09:24:10.917Z,99596.13
2023-03-06T09:26:46.472Z,99591.28
2023-03-06T09:29:20.589Z,99595.16
2023-03-06T09:31:49.452Z,99585.38
2023-03-06T09:34:21.315Z,99578.00
2023-03-06T09:36:56.631Z,99581.69
2023-03-06T09:39:25.675Z,99587.22
2023-03-06T09:41:55.208Z,99575.63
2023-03-06T09:44:28.865Z,99567.56
2023-03-06T09:47:30.108Z,99566.22
2023-03-06T09:50:10.576Z,99560.16
2023-03-06T09:52:45.880Z,99552.94
2023-03-06T09:55:17.390Z,99559.63
2023-03-06T09:57:52.872Z,99555.09
2023-03-06T10:00:22.957Z,99554.75
2023-03-06T10:02:57.171Z,99550.22
2023-03-06T10:05:29.342Z,99541.94
2023-03-06T10:08:01.468Z,99542.59
2023-03-06T10:10:34.305Z,99536.19
2023-03-06T10:13:04.376Z,99529.81
2023-03-06T10:15:34.334Z,99525.72
2023-03-06T10:18:05.058Z,99521.47
2023-03-06T10:20:35.838Z,99513.81
2023-03-06T10:23:14.953Z,99509.44
2023-03-06T10:25:47.932Z,99508.03
2023-03-06T10:28:17.473Z,99504.47
2023-03-06T10:30:50.540Z,99499.28
2023-03-06T10:33:23.106Z,99500.34
2023-03-06T10:35:52.179Z,99500.19
2023-03-06T10:38:22.962Z,99495.22
2023-03-06T10:41:07.098Z,99496.47
2023-03-06T10:43:36.467Z,99493.47
2023-03-06T10:46:05.745Z,99486.34
2023-03-06T10:48:40.051Z,99485.69
2023-03-06T10:51:29.212Z,99475.63
2023-03-06T10:54:00.588Z,99469.25
2023-03-06T10:56:32.623Z,99470.28
2023-03-06T10:59:20.316Z,99478.00
2023-03-06T11:01:51.124Z,99467.47
2023-03-06T11:04:25.770Z,99462.06
2023-03-06T11:07:13.975Z,99463.19
2023-03-06T11:09:42.712Z,99453.09
2023-03-06T11:12:28.900Z,99450.34
2023-03-06T11:15:17.473Z,99447.22
2023-03-06T11:17:59.999Z,99439.59
2023-03-06T11:20:48.620Z,99446.00
2023-03-06T11:23:20.265Z,99449.56
2023-03-06T11:25:51.124Z,99453.09
2023-03-06T11:28:22.110Z,99452.59
2023-03-06T11:30:52.697Z,99450.59
2023-03-06T11:33:24.369Z,99442.28
2023-03-06T11:35:57.981Z,99446.22
2023-03-06T11:38:32.280Z,99447.03
2023-03-06T11:41:01.299Z,99444.97
2023-03-06T11:43:35.321Z,99442.03
2023-03-06T11:46:06.846Z,99439.34
2023-03-06T11:48:36.998Z,99434.41
2023-03-06T11:51:12.901Z,99426.47
2023-03-06T11:53:42.402Z,99424.03
2023-03-06T11:56:23.960Z,99420.69
2023-03-06T11:58:58.187Z,99414.19
2023-03-06T12:01:29.014Z,99411.09
2023-03-06T12:04:15.316Z,99408.06
2023-03-06T12:06:49.470Z,99404.75
2023-03-06T12:09:26.374Z,99397.09
2023-03-06T12:12:01.170Z,99391.50
2023-03-06T12:14:36.929Z,99385.22
2023-03-06T12:17:23.497Z,99395.56
2023-03-06T12:20:01.165Z,99383.22
2023-03-06T12:22:40.498Z,99382.06
2023-03-06T12:25:18.654Z,99371.25
2023-03-06T12:27:51.008Z,99376.00
2023-03-06T12:30:35.692Z,99371.47
2023-03-06T12:33:11.532Z,99364.03
2023-03-06T12:35:58.117Z,99366.16
2023-03-06T12:38:36.330Z,99364.53
2023-03-06T12:41:09.812Z,99359.56
2023-03-06T12:44:04.466Z,99358.31
2023-03-06T12:46:36.012Z,99344.56
2023-03-06T12:49:06.387Z,99337.00
2023-03-06T12:51:35.056Z,99330.41
2023-03-06T12:54:04.757Z,99327.72
2023-03-06T12:56:33.145Z,99322.09
2023-03-06T12:59:02.713Z,99317.94
2023-03-06T13:01:39.858Z,99305.22
2023-03-06T13:04:23.264Z,99301.69
2023-03-06T13:06:57.452Z,99290.91
2023-03-06T13:09:35.245Z,99280.22
2023-03-06T13:12:18.951Z,99277.63
2023-03-06T13:14:54.807Z,99281.78
2023-03-06T13:17:44.092Z,99270.81
2023-03-06T13:20:26.600Z,99267.09
2023-03-06T13:22:54.758Z,99265.59
2023-03-06T13:25:44.866Z,99250.78
2023-03-06T13:28:24.083Z,99260.84
2023-03-06T13:30:53.283Z,99246.59
2023-03-06T13:33:40.261Z,99244.03
2023-03-06T13:36:22.902Z,99239.09
2023-03-06T13:39:04.961Z,99234.19
2023-03-06T13:41:39.365Z,99243.88
2023-03-06T13:44:34.625Z,99229.97
2023-03-06T13:47:03.943Z,99227.75
2023-03-06T13:49:32.466Z,99222.00
2023-03-06T13:52:08.054Z,99213.66
2023-03-06T13:54:48.276Z,99207.41
2023-03-06T13:57:37.274Z,99205.75
2023-03-06T14:00:22.554Z,99198.25
2023-03-06T14:03:05.448Z,99195.94
2023-03-06T14:05:42.651Z,99194.09
2023-03-06T14:08:11.824Z,99190.53
2023-03-06T14:10:40.264Z,99184.94
2023-03-06T14:13:14.661Z,99188.22
2023-03-06T14:15:46.541Z,99189.84
2023-03-06T14:18:20.384Z,99183.91
2023-03-06T14:20:51.551Z,99174.53
2023-03-06T14:23:27.439Z,99168.03
2023-03-06T14:25:58.278Z,99167.81
2023-03-06T14:28:27.431Z,99171.19
2023-03-06T14:30:58.036Z,99165.38
2023-03-06T14:33:28.998Z,99159.56
2023-03-06T14:35:58.190Z,99158.28
2023-03-06T14:38:26.959Z,99156.94
2023-03-06T14:40:55.091Z,99163.63
2023-03-06T14:43:24.494Z,99153.63
2023-03-06T14:45:54.121Z,99146.34
2023-03-06T14:48:24.752Z,99134.91
2023-03-06T14:50:53.984Z,99125.94
2023-03-06T14:53:23.815Z,99122.38
2023-03-06T14:55:53.415Z,99123.59
2023-03-06T14:58:23.056Z,99123.41
2023-03-06T15:00:54.675Z,99115.47
2023-03-06T15:03:25.893Z,99124.41
2023-03-06T15:05:55.022Z,99116.03
2023-03-06T15:08:25.886Z,99112.91
2023-03-06T15:10:58.277Z,99112.06
2023-03-06T15:13:27.562Z,99108.50
2023-03-06T15:15:56.920Z,99101.03
2023-03-06T15:18:33.738Z,99099.34
2023-03-06T15:21:09.603Z,99092.03
2023-03-06T15:23:38.563Z,99085.97
2023-03-06T15:26:19.932Z,99089.50
2023-03-06T15:29:03.401Z,99082.28
2023-03-06T15:31:37.365Z,99072.34
2023-03-06T15:34:16.108Z,99075.25
2023-03-06T15:36:45.269Z,99071.56
2023-03-06T15:39:30.563Z,99070.34
2023-03-06T15:41:59.287Z,99068.75
2023-03-06T15:44:27.846Z,99070.38
2023-03-06T15:47:07.768Z,99064.59
2023-03-06T15:49:39.502Z,99057.59
2023-03-06T15:52:09.019Z,99060.28
2023-03-06T15:54:37.246Z,99058.00
2023-03-06T15:57:06.595Z,99060.53
2023-03-06T15:59:37.561Z,99062.84
2023-03-06T16:02:13.339Z,99063.06
2023-03-06T16:04:43.122Z,99068.28
2023-03-06T16:07:11.342Z,99061.13
2023-03-06T16:09:39.418Z,99058.31
2023-03-06T16:12:08.071Z,99061.50
2023-03-06T16:14:36.183Z,99061.53
2023-03-06T16:17:04.322Z,99057.84
2023-03-06T16:19:32.604Z,99063.97
2023-03-06T16:22:02.382Z,99057.56
2023-03-06T16:24:30.588Z,99066.09
2023-03-06T16:27:00.613Z,99060.63
2023-03-06T16:29:29.362Z,99076.56
2023-03-06T16:31:58.282Z,99070.03
2023-03-06T16:34:26.587Z,99074.09
2023-03-06T16:36:55.275Z,99076.25
2023-03-06T16:39:25.231Z,99081.06
2023-03-06T16:41:53.929Z,99092.22
2023-03-06T16:44:22.665Z,99099.34
2023-03-06T16:46:51.707Z,99101.44
2023-03-06T16:49:21.580Z,99103.16
2023-03-06T16:51:49.830Z,99108.88
2023-03-06T16:54:17.918Z,99111.06
2023-03-06T16:56:47.785Z,99115.88
2023-03-06T16:59:15.978Z,99116.91
2023-03-06T17:01:44.481Z,99119.63
2023-03-06T17:04:12.960Z,99112.94
2023-03-06T17:06:41.878Z,99113.94
2023-03-06T17:09:10.912Z,99121.63
2023-03-06T17:11:39.738Z,99123.03
2023-03-06T17:14:09.624Z,99125.53
2023-03-06T17:16:40.513Z,99129.69
2023-03-06T17:19:08.892Z,99125.53
2023-03-06T17:21:38.608Z,99127.19
2023-03-06T17:24:07.056Z,99135.44
2023-03-06T17:26:36.605Z,99135.59
2023-03-06T17:29:06.940Z,99139.50
2023-03-06T17:31:36.724Z,99134.94
2023-03-06T17:34:05.184Z,99140.66
2023-03-06T17:36:33.981Z,99136.75
2023-03-06T17:39:03.097Z,99133.94
2023-03-06T17:41:32.969Z,99130.75
2023-03-06T17:44:01.863Z,99133.44
2023-03-06T17:46:31.970Z,99130.75
2023-03-06T17:49:01.671Z,99132.47
2023-03-06T17:51:29.974Z,99132.47
2023-03-06T17:53:58.086Z,99126.78
2023-03-06T17:56:28.472Z,99117.25
2023-03-06T17:58:57.712Z,99126.47
2023-03-06T18:01:27.608Z,99121.44
2023-03-06T18:03:56.015Z,99124.13
2023-03-06T18:06:27.840Z,99119.59
2023-03-06T18:08:55.941Z,99115.28
2023-03-06T18:11:24.426Z,99116.63
2023-03-06T18:13:52.590Z,99118.47
2023-03-06T18:16:21.782Z,99117.78
2023-03-06T18:18:52.510Z,99123.50
2023-03-06T18:21:20.635Z,99129.03
2023-03-06T18:23:50.299Z,99124.03
2023-03-06T18:26:20.138Z,99124.66
2023-03-06T18:28:48.943Z,99120.50
2023-03-06T18:31:17.521Z,99120.16
2023-03-06T18:33:46.067Z,99124.53
2023-03-06T18:36:14.325Z,99127.53
2023-03-06T18:38:44.053Z,99128.22
2023-03-06T18:41:14.367Z,99126.19
2023-03-06T18:43:42.514Z,99121.34
2023-03-06T18:46:10.980Z,99125.53
2023-03-06T18:48:39.766Z,99128.38
2023-03-06T18:51:08.804Z,99124.69
2023-03-06T18:53:37.663Z,99122.19
2023-03-06T18:56:06.196Z,99126.56
2023-03-06T18:58:35.704Z,99125.38
2023-03-06T19:01:06.985Z,99124.03
2023-03-06T19:03:35.543Z,99123.19
2023-03-06T19:06:05.389Z,99119.84
2023-03-06T19:08:33.635Z,99117.00
2023-03-06T19:11:02.755Z,99119.84
2023-03-06T19:13:31.411Z,99118.16
2023-03-06T19:16:00.980Z,99120.34
2023-03-06T19:18:29.862Z,99118.34
2023-03-06T19:21:07.949Z,99118.16
2023-03-06T19:23:36.564Z,99122.19
2023-03-06T19:26:05.323Z,99121.69
2023-03-06T19:28:33.353Z,99122.19
2023-03-06T19:31:08.215Z,99122.50
2023-03-06T19:33:37.634Z,99124.19
2023-03-06T19:36:06.305Z,99125.88
2023-03-06T19:38:35.475Z,99130.03
2023-03-06T19:41:08.476Z,99126.72
2023-03-06T19:43:38.538Z,99123.50
2023-03-06T19:46:09.444Z,99124.88
2023-03-06T19:48:38.228Z,99120.50
2023-03-06T19:51:09.649Z,99126.53
2023-03-06T19:53:39.748Z,99118.66
2023-03-06T19:56:10.897Z,99118.66
2023-03-06T19:58:41.238Z,99119.81
2023-03-06T20:01:13.977Z,99121.50
2023-03-06T20:03:42.948Z,99123.19
2023-03-06T20:06:15.900Z,99122.50
2023-03-06T20:08:45.710Z,99120.84
2023-03-06T20:11:19.748Z,99119.53
2023-03-06T20:13:50.785Z,99124.19
2023-03-06T20:16:20.596Z,99115.00
2023-03-06T20:18:49.942Z,99118.34
2023-03-06T20:21:22.923Z,99118.16
2023-03-06T20:23:54.651Z,99121.84
2023-03-06T20:26:22.992Z,99119.81
2023-03-06T20:28:51.034Z,99123.50
2023-03-06T20:31:23.703Z,99129.50
2023-03-06T20:33:52.745Z,99128.66
2023-03-06T20:36:23.304Z,99128.59
2023-03-06T20:38:51.666Z,99128.41
2023-03-06T20:41:20.759Z,99134.22
2023-03-06T20:43:50.110Z,99133.69
2023-03-06T20:46:20.604Z,99137.69
2023-03-06T20:48:53.335Z,99134.47
2023-03-06T20:51:24.131Z,99133.25
2023-03-06T20:53:54.775Z,99126.34
2023-03-06T20:56:24.918Z,99134.34
2023-03-06T20:58:53.870Z,99138.00
2023-03-06T21:01:25.104Z,99130.63
2023-03-06T21:03:57.997Z,99140.25
2023-03-06T21:06:31.867Z,99129.69
2023-03-06T21:09:02.163Z,99139.00
2023-03-06T21:11:33.266Z,99140.78
2023-03-06T21:14:03.743Z,99135.91
2023-03-06T21:16:32.679Z,99136.91
2023-03-06T21:19:03.192Z,99142.63
2023-03-06T21:21:34.944Z,99138.22
2023-03-06T21:24:03.640Z,99137.97
2023-03-06T21:26:33.935Z,99140.84
2023-03-06T21:29:02.192Z,99147.41
2023-03-06T21:31:31.223Z,99137.09
2023-03-06T21:34:00.576Z,99141.69
2023-03-06T21:36:35.395Z,99150.41
2023-03-06T21:39:06.615Z,99147.09
2023-03-06T21:41:35.626Z,99141.66
2023-03-06T21:44:05.608Z,99147.28
2023-03-06T21:46:34.638Z,99146.28
2023-03-06T21:49:03.273Z,99149.41
2023-03-06T21:51:32.804Z,99151.66
2023-03-06T21:54:02.184Z,99157.53
2023-03-06T21:56:30.233Z,99149.13
2023-03-06T21:58:58.422Z,99150.25
2023-03-06T22:01:28.607Z,99151.22
2023-03-06T22:03:57.084Z,99162.59
2023-03-06T22:06:26.711Z,99160.38
2023-03-06T22:08:57.554Z,99165.56
2023-03-06T22:11:26.655Z,99169.88
2023-03-06T22:13:55.160Z,99158.53
2023-03-06T22:16:23.251Z,99173.56
2023-03-06T22:18:52.192Z,99164.03
2023-03-06T22:21:21.108Z,99169.63
2023-03-06T22:23:50.117Z,99172.00
2023-03-06T22:26:20.436Z,99170.31
2023-03-06T22:28:48.702Z,99168.78
2023-03-06T22:31:18.284Z,99168.38
2023-03-06T22:33:46.882Z,99180.31
2023-03-06T22:36:16.284Z,99178.31
2023-03-06T22:38:47.574Z,99188.84
2023-03-06T22:41:18.168Z,99186.75
2023-03-06T22:43:48.973Z,99187.88
2023-03-06T22:46:18.490Z,99184.38
2023-03-06T22:48:47.812Z,99181.72
2023-03-06T22:51:17.525Z,99185.63
2023-03-06T22:53:46.235Z,99181.16
2023-03-06T22:56:15.574Z,99186.47
2023-03-06T22:58:44.932Z,99184.25
2023-03-06T23:01:16.448Z,99175.81
2023-03-06T23:03:45.935Z,99181.16
2023-03-06T23:06:16.382Z,99177.50
2023-03-06T23:08:46.214Z,99174.84
2023-03-06T23:11:16.426Z,99186.75
2023-03-06T23:14:06.153Z,99186.91
2023-03-06T23:16:54.709Z,99184.81
2023-03-06T23:19:41.587Z,99186.63
2023-03-06T23:22:30.002Z,99178.91
2023-03-06T23:25:16.663Z,99181.03
2023-03-06T23:27:47.005Z,99177.53
2023-03-06T23:30:16.251Z,99175.56
2023-03-06T23:32:47.444Z,99178.22
2023-03-06T23:35:16.083Z,99165.59
2023-03-06T23:37:44.889Z,99167.59
2023-03-06T23:40:15.014Z,99173.88
2023-03-06T23:42:43.136Z,99170.81
2023-03-06T23:45:13.033Z,99175.84
2023-03-06T23:47:42.906Z,99177.53
2023-03-06T23:50:15.318Z,99178.38
2023-03-06T23:52:44.208Z,99174.31
2023-03-06T23:55:13.205Z,99173.63
2023-03-06T23:57:41.703Z,99175.28
